Terminal Aerodrome Forecast
Issued by NWS Milwaukee/Sullivan, WI

Home | Current Version | Previous Version | Text Only | Print | Product List | Glossary On
Versions: 1 2 3 4 5 6 7 8 9 10 11 12 13 14 15 16 17 18 19 20 21 22 23 24 25 26 27 28 29 30 31 32 33 34 35 36 37
000
FTUS43 KMKX 231528 AAC
TAFMSN
TAF AMD
KMSN 231528Z 2315/2412 18010KT P6SM BKN060
     FM231700 18010KT 5SM -SHRA BR OVC035
     FM232000 20009KT P6SM VCSH SCT025 OVC035
     FM232300 21005KT P6SM OVC025
     FM240100 VRB03KT P6SM BKN025
     FM240500 VRB03KT 5SM BR SCT025=

USA.gov is the U.S. government's official web portal to all federal, state and local government web resources and services.